Time;durP1;ratioP1;P1;durP2;ratioP2;P2;SDS_P1;SDS_P2;PMS_P1;PMS_P2;Temp;Humidity;BMP_temperature;BMP_pressure;BME280_temperature;BME280_humidity;BME280_pressure;Samples;Min_cycle;Max_cycle;Signal;HPM_P1;HPM_P2
2022/05/15 00:00:37;;;;;;;6.88;3.10;;;11.90;99.90;;;;;;4822521;29;20190;-83
2022/05/15 00:00:38;;;;;;;12.27;3.30;;;11.90;99.90;;;;;;4825930;29;20217;-84
2022/05/15 00:03:06;;;;;;;15.05;3.22;;;11.80;99.90;;;;;;4824928;29;20265;-84
2022/05/15 00:05:32;;;;;;;12.52;3.00;;;11.70;99.90;;;;;;4826055;29;20506;-83
2022/05/15 00:07:57;;;;;;;5.95;2.95;;;11.80;99.90;;;;;;4825840;29;20181;-83
2022/05/15 00:10:23;;;;;;;10.77;3.30;;;11.70;99.90;;;;;;4824333;29;20183;-83
2022/05/15 00:12:49;;;;;;;10.27;3.33;;;11.60;99.90;;;;;;4824490;29;20194;-83
2022/05/15 00:15:14;;;;;;;10.77;3.33;;;11.50;99.90;;;;;;4825856;29;20181;-83
2022/05/15 00:17:41;;;;;;;11.70;2.85;;;11.50;99.90;;;;;;4825634;29;20178;-83
2022/05/15 00:20:07;;;;;;;9.68;2.92;;;11.50;99.90;;;;;;4824760;29;20202;-83
2022/05/15 00:22:35;;;;;;;7.38;2.90;;;11.40;99.90;;;;;;4825299;29;20178;-84
2022/05/15 00:25:02;;;;;;;8.40;2.63;;;11.40;99.90;;;;;;4824571;29;20186;-84
2022/05/15 00:27:28;;;;;;;8.93;3.03;;;11.40;99.90;;;;;;4825312;29;20613;-83
2022/05/15 00:29:54;;;;;;;9.57;3.33;;;11.40;99.90;;;;;;4825563;29;20261;-84
2022/05/15 00:32:19;;;;;;;10.57;3.00;;;11.50;99.90;;;;;;4825483;29;20213;-83
2022/05/15 00:34:45;;;;;;;8.50;3.03;;;11.50;99.90;;;;;;4825668;29;20173;-84
2022/05/15 00:37:11;;;;;;;8.02;3.42;;;11.50;99.90;;;;;;4825550;29;20193;-83
2022/05/15 00:39:36;;;;;;;8.38;3.05;;;11.40;99.90;;;;;;4825441;29;20339;-83
2022/05/15 00:42:09;;;;;;;11.33;2.70;;;11.40;99.90;;;;;;4825162;29;20265;-84
2022/05/15 00:44:34;;;;;;;10.83;3.40;;;11.30;99.90;;;;;;4825576;29;20177;-83
2022/05/15 00:47:00;;;;;;;7.40;3.63;;;11.20;99.90;;;;;;4825329;29;20174;-83
2022/05/15 00:49:26;;;;;;;12.80;3.35;;;11.00;99.90;;;;;;4825442;29;20181;-82
2022/05/15 00:52:05;;;;;;;10.25;3.53;;;10.90;99.90;;;;;;4825075;29;20221;-84
2022/05/15 00:54:40;;;;;;;7.35;2.88;;;10.80;99.90;;;;;;4825234;29;20190;-84
2022/05/15 00:57:31;;;;;;;8.27;3.20;;;10.80;99.90;;;;;;4824958;29;20181;-84
2022/05/15 01:00:22;;;;;;;9.03;3.37;;;10.90;99.90;;;;;;4825209;29;20290;-84
2022/05/15 01:02:57;;;;;;;7.67;2.97;;;10.80;99.90;;;;;;4825287;29;20223;-83
2022/05/15 01:05:23;;;;;;;10.60;2.95;;;10.90;99.90;;;;;;4825275;29;20177;-83
2022/05/15 01:07:49;;;;;;;8.47;3.07;;;10.90;99.90;;;;;;4825165;29;20182;-84
2022/05/15 01:10:15;;;;;;;11.37;3.47;;;10.80;99.90;;;;;;4825445;29;20185;-84
2022/05/15 01:12:43;;;;;;;8.82;2.92;;;10.90;99.90;;;;;;4824782;29;20515;-84
2022/05/15 01:15:14;;;;;;;10.90;3.43;;;10.80;99.90;;;;;;4825166;29;20181;-83
2022/05/15 01:17:40;;;;;;;9.10;2.80;;;10.80;99.90;;;;;;4825006;29;20190;-84
2022/05/15 01:20:15;;;;;;;10.50;3.20;;;10.80;99.90;;;;;;4825024;29;20214;-84
2022/05/15 01:22:41;;;;;;;10.57;3.10;;;10.80;99.90;;;;;;4823839;29;20178;-84
2022/05/15 01:25:14;;;;;;;8.43;3.00;;;10.70;99.90;;;;;;4825258;29;20182;-84
2022/05/15 01:27:46;;;;;;;8.67;2.80;;;10.70;99.90;;;;;;4824699;29;20178;-84
2022/05/15 01:30:12;;;;;;;8.63;2.90;;;10.60;99.90;;;;;;4825384;29;20189;-84
2022/05/15 01:32:38;;;;;;;6.57;2.60;;;10.60;99.90;;;;;;4828132;29;20643;-84
2022/05/15 01:35:04;;;;;;;9.70;2.90;;;10.70;99.90;;;;;;4828349;29;20218;-84
2022/05/15 01:37:30;;;;;;;7.23;2.70;;;10.70;99.90;;;;;;4828243;29;20178;-84
2022/05/15 01:39:56;;;;;;;10.83;3.03;;;10.50;99.90;;;;;;4828068;29;20316;-84
2022/05/15 01:42:21;;;;;;;7.37;3.03;;;10.50;99.90;;;;;;4827698;29;20275;-84
2022/05/15 01:44:47;;;;;;;6.60;3.07;;;10.50;99.90;;;;;;4828041;29;20186;-84
2022/05/15 01:47:13;;;;;;;5.93;2.70;;;10.50;99.90;;;;;;4828105;29;20178;-84
2022/05/15 01:49:38;;;;;;;8.90;2.63;;;10.50;99.90;;;;;;4826811;29;20182;-84
2022/05/15 01:52:04;;;;;;;6.37;2.80;;;10.50;99.90;;;;;;4827731;29;20604;-84
2022/05/15 01:54:30;;;;;;;5.33;2.37;;;10.60;99.90;;;;;;4828028;29;20186;-84
2022/05/15 01:56:56;;;;;;;8.10;2.80;;;10.40;99.90;;;;;;4827759;29;20182;-82
2022/05/15 01:59:22;;;;;;;11.67;2.60;;;10.30;99.90;;;;;;4827837;29;20525;-83
2022/05/15 02:01:47;;;;;;;5.10;2.60;;;10.10;99.90;;;;;;4827745;29;20187;-84
2022/05/15 02:04:13;;;;;;;8.00;2.47;;;10.10;99.90;;;;;;4827830;29;20269;-84
2022/05/15 02:06:39;;;;;;;8.13;2.80;;;10.10;99.90;;;;;;4827957;29;20171;-84
2022/05/15 02:09:06;;;;;;;6.17;2.67;;;9.90;99.90;;;;;;4827668;29;20221;-84
2022/05/15 02:11:34;;;;;;;4.50;2.53;;;9.80;99.90;;;;;;4827304;29;20182;-84
2022/05/15 02:14:00;;;;;;;6.53;2.17;;;9.80;99.90;;;;;;4827439;29;20283;-84
2022/05/15 02:16:26;;;;;;;6.23;2.37;;;9.90;99.90;;;;;;4827813;29;20185;-84
2022/05/15 02:18:52;;;;;;;8.20;2.80;;;9.90;99.90;;;;;;4827316;29;20209;-84
2022/05/15 02:21:18;;;;;;;5.33;2.57;;;9.90;99.90;;;;;;4827628;29;20201;-83
2022/05/15 02:23:44;;;;;;;10.83;3.00;;;10.00;99.90;;;;;;4827441;29;20174;-83
2022/05/15 02:26:09;;;;;;;5.03;2.40;;;10.10;99.90;;;;;;4827380;29;20331;-83
2022/05/15 02:28:37;;;;;;;5.77;2.70;;;10.10;99.90;;;;;;4817506;29;20632;-83
2022/05/15 02:31:04;;;;;;;11.13;2.90;;;9.90;99.90;;;;;;4808147;29;20193;-82
2022/05/15 02:33:29;;;;;;;5.80;2.40;;;10.00;99.90;;;;;;4808079;29;20186;-82
2022/05/15 02:35:58;;;;;;;6.53;2.20;;;9.90;99.90;;;;;;4809310;29;20175;-83
2022/05/15 02:38:24;;;;;;;7.10;2.53;;;9.90;99.90;;;;;;4807777;29;20654;-83
2022/05/15 02:40:50;;;;;;;8.53;2.93;;;9.90;99.90;;;;;;4807610;29;20198;-83
2022/05/15 02:43:16;;;;;;;7.03;3.03;;;9.80;99.90;;;;;;4808237;29;20662;-82
2022/05/15 02:45:42;;;;;;;10.73;3.13;;;9.80;99.90;;;;;;4807765;29;20525;-82
2022/05/15 02:51:03;;;;;;;6.50;2.53;;;9.70;99.90;;;;;;4807638;29;20199;-83
2022/05/15 02:51:05;;;;;;;6.57;3.17;;;9.50;99.90;;;;;;4808719;29;20227;-84
2022/05/15 02:53:40;;;;;;;13.07;2.77;;;9.50;99.90;;;;;;4807321;29;20600;-83
2022/05/15 02:56:11;;;;;;;4.23;2.13;;;9.60;99.90;;;;;;4814269;29;20181;-83
2022/05/15 02:58:37;;;;;;;8.77;2.83;;;9.40;99.90;;;;;;4826901;29;20212;-82
2022/05/15 03:01:03;;;;;;;9.00;3.10;;;9.40;99.90;;;;;;4826788;29;20590;-84
2022/05/15 03:03:29;;;;;;;11.83;2.80;;;9.40;99.90;;;;;;4826837;29;20178;-83
2022/05/15 03:05:55;;;;;;;7.50;3.57;;;9.30;99.90;;;;;;4825438;29;20241;-83
2022/05/15 03:08:20;;;;;;;10.03;3.20;;;9.30;99.90;;;;;;4826605;29;20186;-83
2022/05/15 03:10:46;;;;;;;9.97;2.93;;;9.40;99.90;;;;;;4826725;29;20182;-83
2022/05/15 03:13:12;;;;;;;7.77;2.80;;;9.30;99.90;;;;;;4825190;29;20186;-83
2022/05/15 03:15:38;;;;;;;5.93;2.90;;;9.20;99.90;;;;;;4826849;29;20513;-83
2022/05/15 03:18:04;;;;;;;5.13;3.03;;;9.20;99.90;;;;;;4826668;29;20185;-84
2022/05/15 03:20:30;;;;;;;10.80;2.60;;;9.30;99.90;;;;;;4826441;29;20642;-83
2022/05/15 03:22:56;;;;;;;8.77;2.83;;;9.30;99.90;;;;;;4826518;29;20177;-84
2022/05/15 03:25:24;;;;;;;7.83;3.07;;;9.40;99.90;;;;;;4825322;29;20190;-84
2022/05/15 03:27:50;;;;;;;7.50;2.30;;;9.40;99.90;;;;;;4826238;29;20186;-83
2022/05/15 03:30:16;;;;;;;8.17;2.80;;;9.40;99.90;;;;;;4826458;29;20642;-82
2022/05/15 03:32:42;;;;;;;7.57;2.80;;;9.50;99.90;;;;;;4826346;29;20189;-82
2022/05/15 03:35:09;;;;;;;5.63;2.67;;;9.40;99.90;;;;;;4826300;29;20198;-83
2022/05/15 03:37:34;;;;;;;5.43;2.37;;;9.40;99.90;;;;;;4826419;29;20178;-83
2022/05/15 03:40:00;;;;;;;7.97;2.40;;;9.40;99.90;;;;;;4824745;29;20229;-81
2022/05/15 03:42:27;;;;;;;5.47;2.80;;;9.40;99.90;;;;;;4826051;29;20697;-83
2022/05/15 03:44:53;;;;;;;5.90;2.70;;;9.30;99.90;;;;;;4826301;29;20189;-83
2022/05/15 03:47:20;;;;;;;7.53;2.97;;;9.20;99.90;;;;;;4825101;29;20178;-83
2022/05/15 03:49:46;;;;;;;9.00;2.87;;;9.30;99.90;;;;;;4826241;29;20507;-83
2022/05/15 03:52:11;;;;;;;4.37;2.70;;;9.30;99.90;;;;;;4824569;29;20233;-84
2022/05/15 03:54:37;;;;;;;6.63;2.80;;;9.10;99.90;;;;;;4825073;29;20190;-83
2022/05/15 03:57:04;;;;;;;9.13;3.10;;;9.10;99.90;;;;;;4825789;29;20193;-84
2022/05/15 03:59:37;;;;;;;4.97;2.77;;;9.00;99.90;;;;;;4824607;29;20298;-84
2022/05/15 04:02:05;;;;;;;10.00;2.53;;;9.10;99.90;;;;;;4825991;29;20179;-83
2022/05/15 04:04:32;;;;;;;7.53;2.90;;;9.10;99.90;;;;;;4825982;29;20195;-84
2022/05/15 04:06:59;;;;;;;6.47;2.77;;;9.20;99.90;;;;;;4826113;29;20168;-84
2022/05/15 04:09:26;;;;;;;9.00;3.20;;;9.30;99.90;;;;;;4824835;29;20241;-84
2022/05/15 04:11:51;;;;;;;8.87;3.23;;;9.30;99.90;;;;;;4824522;29;20174;-83
2022/05/15 04:14:17;;;;;;;9.87;3.20;;;9.20;99.90;;;;;;4825994;29;20512;-84
2022/05/15 04:16:43;;;;;;;7.80;2.97;;;9.30;99.90;;;;;;4824633;29;20186;-84
2022/05/15 04:19:09;;;;;;;7.40;3.13;;;9.30;99.90;;;;;;4825730;29;20262;-85
2022/05/15 04:21:40;;;;;;;9.83;3.10;;;9.10;99.90;;;;;;4824636;29;20184;-83
2022/05/15 04:24:09;;;;;;;4.70;2.50;;;9.20;99.90;;;;;;4824675;29;20181;-83
2022/05/15 04:26:36;;;;;;;6.17;3.00;;;9.20;99.90;;;;;;4825475;29;20610;-83
2022/05/15 04:29:03;;;;;;;8.47;3.10;;;9.20;99.90;;;;;;4825769;29;20178;-84
2022/05/15 04:31:28;;;;;;;7.83;3.13;;;9.20;99.90;;;;;;4824313;29;20181;-82
2022/05/15 04:33:54;;;;;;;9.40;3.17;;;9.30;99.90;;;;;;4824774;29;20197;-84
2022/05/15 04:36:20;;;;;;;12.83;3.93;;;9.40;99.90;;;;;;4826063;29;20174;-84
2022/05/15 04:38:45;;;;;;;9.07;3.80;;;9.40;99.90;;;;;;4825557;29;20202;-84
2022/05/15 04:41:11;;;;;;;5.67;3.40;;;9.40;99.90;;;;;;4825566;29;20310;-83
2022/05/15 04:43:37;;;;;;;11.93;4.03;;;9.50;99.90;;;;;;4825571;29;20204;-83
2022/05/15 04:46:07;;;;;;;7.43;3.30;;;9.60;99.90;;;;;;4824248;29;20637;-85
2022/05/15 04:48:40;;;;;;;13.57;4.03;;;9.70;99.90;;;;;;4825745;29;20181;-85
2022/05/15 04:51:05;;;;;;;9.17;3.37;;;9.70;99.90;;;;;;4824266;29;20326;-84
2022/05/15 04:53:31;;;;;;;8.50;3.70;;;9.70;99.90;;;;;;4825229;29;20629;-85
2022/05/15 04:55:58;;;;;;;6.23;3.20;;;9.80;99.90;;;;;;4824355;29;20193;-84
2022/05/15 04:58:24;;;;;;;14.43;3.97;;;9.90;99.90;;;;;;4823754;29;20243;-85
2022/05/15 05:00:50;;;;;;;11.33;3.50;;;9.90;99.90;;;;;;4825486;29;20193;-85
2022/05/15 05:03:16;;;;;;;7.93;3.63;;;10.00;99.90;;;;;;4825359;29;20611;-85
2022/05/15 05:05:42;;;;;;;8.17;3.70;;;10.10;99.90;;;;;;4826480;29;20186;-85
2022/05/15 05:08:10;;;;;;;7.30;3.55;;;10.10;99.90;;;;;;4828789;29;20166;-85
2022/05/15 05:10:36;;;;;;;7.53;3.17;;;10.20;99.90;;;;;;4828989;29;20269;-85
2022/05/15 05:13:03;;;;;;;6.90;3.40;;;10.30;99.90;;;;;;4828340;29;20265;-85
2022/05/15 05:15:28;;;;;;;7.77;3.63;;;10.30;99.90;;;;;;4827693;29;20725;-85
2022/05/15 05:17:55;;;;;;;9.80;3.83;;;10.40;99.90;;;;;;4828792;29;20190;-85
2022/05/15 05:20:21;;;;;;;6.80;3.37;;;10.50;99.90;;;;;;4828769;29;20222;-85
2022/05/15 05:22:47;;;;;;;9.40;3.93;;;10.50;99.90;;;;;;4828546;29;20189;-86
2022/05/15 05:25:13;;;;;;;8.17;3.50;;;10.60;99.90;;;;;;4828534;29;20654;-85
2022/05/15 05:27:41;;;;;;;7.37;3.33;;;10.60;99.90;;;;;;4828187;29;20189;-85
2022/05/15 05:30:20;;;;;;;6.30;3.35;;;10.60;99.90;;;;;;4828448;29;20186;-85
2022/05/15 05:32:47;;;;;;;7.37;3.30;;;10.70;99.90;;;;;;4828491;29;20625;-85
2022/05/15 05:35:15;;;;;;;5.73;3.20;;;10.70;99.90;;;;;;4828488;29;20193;-85
2022/05/15 05:37:41;;;;;;;7.55;3.10;;;10.90;99.90;;;;;;4828517;29;20178;-85
2022/05/15 05:40:08;;;;;;;10.80;4.10;;;11.00;99.90;;;;;;4828170;29;20671;-85
2022/05/15 05:42:33;;;;;;;8.83;3.50;;;11.10;99.90;;;;;;4828352;29;20490;-87
2022/05/15 05:45:01;;;;;;;7.95;3.35;;;11.20;99.90;;;;;;4827981;29;20193;-86
2022/05/15 05:47:28;;;;;;;8.32;3.50;;;11.30;99.90;;;;;;4828389;29;20166;-87
2022/05/15 05:49:54;;;;;;;9.93;3.72;;;11.40;99.90;;;;;;4828245;29;20655;-86
2022/05/15 05:52:20;;;;;;;10.75;3.60;;;11.50;99.90;;;;;;4826775;29;20237;-86
2022/05/15 05:54:46;;;;;;;12.75;3.60;;;11.60;99.90;;;;;;4828458;29;20197;-87
2022/05/15 05:57:13;;;;;;;5.75;2.78;;;11.60;99.90;;;;;;4827848;29;20272;-86
2022/05/15 05:59:39;;;;;;;7.70;2.97;;;11.70;99.90;;;;;;4827848;29;20218;-86
2022/05/15 06:02:06;;;;;;;9.82;3.10;;;11.80;99.90;;;;;;4828003;29;20291;-86
2022/05/15 06:04:42;;;;;;;6.90;3.00;;;11.90;99.90;;;;;;4828062;29;20185;-86
2022/05/15 06:07:20;;;;;;;7.65;2.85;;;12.00;99.90;;;;;;4828004;29;20531;-86
2022/05/15 06:09:48;;;;;;;5.40;2.50;;;12.10;99.90;;;;;;4827834;29;20606;-85
2022/05/15 06:12:16;;;;;;;6.95;2.78;;;12.20;99.90;;;;;;4827477;29;20178;-86
2022/05/15 06:14:42;;;;;;;7.63;2.70;;;12.20;99.90;;;;;;4828008;29;20240;-86
2022/05/15 06:17:08;;;;;;;9.88;3.30;;;12.30;99.90;;;;;;4826700;29;20167;-86
2022/05/15 06:19:34;;;;;;;8.75;3.10;;;12.40;99.90;;;;;;4827618;29;20532;-86
2022/05/15 06:22:00;;;;;;;8.05;2.50;;;12.50;99.90;;;;;;4827685;29;20178;-86
2022/05/15 06:24:27;;;;;;;9.95;2.83;;;12.60;99.90;;;;;;4827797;29;20740;-87
2022/05/15 06:26:54;;;;;;;6.60;2.70;;;12.70;99.90;;;;;;4818188;29;20179;-84
2022/05/15 06:29:19;;;;;;;5.80;2.58;;;12.80;99.90;;;;;;4791572;29;20175;-86
2022/05/15 06:31:46;;;;;;;7.15;2.30;;;12.90;99.90;;;;;;4791460;29;20176;-86
2022/05/15 06:34:13;;;;;;;9.00;2.78;;;13.00;99.90;;;;;;4791553;29;20604;-86
2022/05/15 06:36:40;;;;;;;8.07;2.85;;;13.10;99.90;;;;;;4795302;29;20297;-86
2022/05/15 06:39:06;;;;;;;7.32;2.88;;;13.20;99.90;;;;;;4807991;29;20230;-85
2022/05/15 06:41:32;;;;;;;9.90;2.20;;;13.40;99.90;;;;;;4807999;29;20179;-85
2022/05/15 06:43:58;;;;;;;6.07;1.85;;;13.50;99.90;;;;;;4809212;29;20662;-85
2022/05/15 06:46:23;;;;;;;10.18;2.38;;;13.60;99.90;;;;;;4807941;29;20186;-85
2022/05/15 06:48:49;;;;;;;7.63;2.00;;;13.80;99.90;;;;;;4808966;29;20163;-84
2022/05/15 06:51:16;;;;;;;8.38;2.20;;;13.90;99.90;;;;;;4808743;29;20317;-86
2022/05/15 06:53:46;;;;;;;8.07;1.75;;;14.00;99.90;;;;;;4809383;29;20177;-84
2022/05/15 06:58:57;;;;;;;6.65;1.83;;;14.40;99.90;;;;;;4826917;29;20669;-86
2022/05/15 07:01:23;;;;;;;7.88;2.10;;;14.60;99.90;;;;;;4812773;29;20190;-85
2022/05/15 07:03:49;;;;;;;6.13;2.00;;;14.70;99.90;;;;;;4791086;29;20179;-85
2022/05/15 07:06:15;;;;;;;6.88;2.15;;;14.90;99.90;;;;;;4790764;29;20202;-85
2022/05/15 07:08:42;;;;;;;6.82;1.70;;;15.00;99.90;;;;;;4790587;29;20624;-85
2022/05/15 07:11:10;;;;;;;8.63;2.20;;;15.10;99.90;;;;;;4790640;29;20240;-86
2022/05/15 07:13:36;;;;;;;7.47;1.95;;;15.10;99.90;;;;;;4790504;29;20175;-86
2022/05/15 07:16:02;;;;;;;8.15;1.95;;;15.30;99.90;;;;;;4790597;29;20308;-87
2022/05/15 07:18:28;;;;;;;8.40;2.17;;;15.40;99.90;;;;;;4789207;29;20608;-86
2022/05/15 07:20:54;;;;;;;5.18;1.52;;;15.50;99.90;;;;;;4790458;29;20627;-87
2022/05/15 07:23:21;;;;;;;8.60;1.92;;;15.70;99.90;;;;;;4790517;29;20678;-87
2022/05/15 07:25:48;;;;;;;4.82;1.60;;;15.80;99.90;;;;;;4797365;29;20186;-85
2022/05/15 07:28:14;;;;;;;9.05;2.15;;;15.90;99.90;;;;;;4826085;29;20511;-87
2022/05/15 07:30:40;;;;;;;8.52;1.73;;;16.00;99.90;;;;;;4826684;29;20649;-86
2022/05/15 07:33:07;;;;;;;5.57;1.75;;;16.10;99.90;;;;;;4826509;29;20190;-84
2022/05/15 07:35:33;;;;;;;5.05;1.75;;;16.30;99.90;;;;;;4825456;29;20272;-86
2022/05/15 07:37:59;;;;;;;7.72;2.00;;;16.40;99.50;;;;;;4826457;29;20181;-85
2022/05/15 07:40:25;;;;;;;9.07;1.60;;;16.50;99.20;;;;;;4825050;29;20218;-86
2022/05/15 07:42:50;;;;;;;5.80;1.73;;;16.60;99.50;;;;;;4826203;29;20178;-85
2022/05/15 07:45:17;;;;;;;6.95;1.73;;;16.70;98.40;;;;;;4823760;29;20185;-85
2022/05/15 07:47:43;;;;;;;7.32;1.83;;;16.70;98.50;;;;;;4790290;29;20179;-88
2022/05/15 07:50:10;;;;;;;7.70;2.03;;;16.80;98.50;;;;;;4789946;29;20241;-87
2022/05/15 07:52:36;;;;;;;9.30;2.30;;;16.90;97.80;;;;;;4787961;29;20679;-86
2022/05/15 07:55:05;;;;;;;7.63;1.85;;;17.00;98.20;;;;;;4790192;29;20183;-88
2022/05/15 07:57:33;;;;;;;5.22;1.92;;;17.00;97.80;;;;;;4822334;29;20192;-86
2022/05/15 08:00:05;;;;;;;6.18;1.85;;;17.20;98.30;;;;;;4825923;29;20221;-86
2022/05/15 08:02:31;;;;;;;6.63;1.85;;;17.30;97.60;;;;;;4824868;29;20178;-87
2022/05/15 08:10:25;;;;;;;8.10;1.70;;;17.70;97.20;;;;;;4826128;29;20177;-86
2022/05/15 08:12:51;;;;;;;6.72;2.13;;;17.80;96.70;;;;;;4824703;29;20182;-88
2022/05/15 08:15:17;;;;;;;6.75;1.70;;;17.90;96.00;;;;;;4826166;29;20178;-85
2022/05/15 08:17:43;;;;;;;6.18;1.67;;;17.90;96.70;;;;;;4826157;29;20174;-88
2022/05/15 08:23:33;;;;;;;6.95;1.65;;;17.90;95.70;;;;;;4825762;29;20205;-87
2022/05/15 08:25:45;;;;;;;4.65;1.40;;;18.00;95.70;;;;;;4810219;29;20201;-87
2022/05/15 08:28:12;;;;;;;8.57;1.80;;;18.10;94.60;;;;;;4825612;29;20284;-87
2022/05/15 08:30:38;;;;;;;7.50;1.92;;;18.10;94.30;;;;;;4796251;29;20198;-86
2022/05/15 08:33:06;;;;;;;8.95;1.77;;;18.20;94.80;;;;;;4789451;29;20214;-85
2022/05/15 08:35:32;;;;;;;5.03;1.48;;;18.30;94.50;;;;;;4789466;29;20270;-86
2022/05/15 08:37:58;;;;;;;4.07;1.45;;;18.30;93.80;;;;;;4789324;29;20250;-84
2022/05/15 08:40:34;;;;;;;7.07;1.63;;;18.40;93.20;;;;;;4806587;29;20214;-85
2022/05/15 08:43:03;;;;;;;6.70;2.00;;;18.30;93.60;;;;;;4806094;29;20232;-86
2022/05/15 08:45:36;;;;;;;5.10;1.80;;;18.40;92.90;;;;;;4792795;29;20184;-85
2022/05/15 08:48:05;;;;;;;5.05;1.67;;;18.30;93.60;;;;;;4792871;29;20171;-85
2022/05/15 08:50:36;;;;;;;6.53;1.90;;;18.20;93.20;;;;;;4792648;29;20611;-85
2022/05/15 08:53:15;;;;;;;4.53;1.45;;;18.40;92.90;;;;;;4792576;29;20292;-86
2022/05/15 08:56:00;;;;;;;6.72;1.75;;;18.40;91.70;;;;;;4798007;29;20611;-87
2022/05/15 08:58:56;;;;;;;6.18;2.05;;;18.60;92.80;;;;;;4807035;29;20197;-84
2022/05/15 09:01:26;;;;;;;5.57;1.60;;;18.50;91.80;;;;;;4792701;29;20184;-83
2022/05/15 09:03:54;;;;;;;6.93;1.23;;;18.50;91.70;;;;;;4791614;29;20631;-85
2022/05/15 09:06:28;;;;;;;9.45;1.60;;;18.60;91.10;;;;;;4791356;30;20628;-85
2022/05/15 09:09:14;;;;;;;4.53;1.50;;;18.50;91.10;;;;;;4792685;29;20575;-84
2022/05/15 09:11:55;;;;;;;3.53;1.50;;;18.70;91.50;;;;;;4792583;29;20253;-85
2022/05/15 09:15:04;;;;;;;6.90;1.98;;;18.70;91.10;;;;;;4795988;29;20187;-87
2022/05/15 09:17:57;;;;;;;8.02;1.98;;;18.90;91.00;;;;;;4810124;29;20195;-86
2022/05/15 09:20:47;;;;;;;13.25;2.00;;;19.20;91.60;;;;;;4810447;29;20214;-84
2022/05/15 09:23:37;;;;;;;5.88;1.63;;;19.20;90.10;;;;;;4809115;29;20182;-86
2022/05/15 09:26:06;;;;;;;2.67;1.25;;;19.30;90.00;;;;;;4814550;29;20221;-85
2022/05/15 09:28:46;;;;;;;3.70;1.55;;;19.30;89.50;;;;;;4826922;29;20197;-83
2022/05/15 09:31:42;;;;;;;4.70;1.27;;;19.20;90.40;;;;;;4827005;29;20640;-85
2022/05/15 09:34:28;;;;;;;6.80;1.65;;;19.40;91.00;;;;;;4827942;29;20239;-87
2022/05/15 09:39:44;;;;;;;3.70;1.38;;;19.60;88.50;;;;;;4828100;29;20612;-86
2022/05/15 09:45:07;;;;;;;6.38;1.85;;;19.80;90.30;;;;;;4828203;29;20197;-85
2022/05/15 09:47:37;;;;;;;5.15;1.52;;;20.00;90.50;;;;;;4828099;29;20205;-84
2022/05/15 09:50:05;;;;;;;6.30;1.83;;;20.20;87.10;;;;;;4827948;29;20515;-84
2022/05/15 09:52:35;;;;;;;4.70;1.50;;;20.30;90.10;;;;;;4826315;29;20240;-84
2022/05/15 09:55:22;;;;;;;6.13;1.40;;;20.30;89.20;;;;;;4827916;29;20170;-84
2022/05/15 09:58:03;;;;;;;5.65;1.67;;;20.50;90.30;;;;;;4791607;29;20176;-85
2022/05/15 10:00:36;;;;;;;7.50;1.60;;;20.70;89.80;;;;;;4791695;29;20236;-85
2022/05/15 10:03:23;;;;;;;4.20;1.40;;;20.70;85.40;;;;;;4791946;29;20192;-88
2022/05/15 10:06:07;;;;;;;7.22;1.63;;;20.80;87.70;;;;;;4793586;29;20174;-85
2022/05/15 10:08:33;;;;;;;5.80;1.60;;;20.70;86.50;;;;;;4803846;29;20649;-86
2022/05/15 10:11:02;;;;;;;5.03;1.40;;;20.80;85.50;;;;;;4791421;29;20623;-85
2022/05/15 10:13:36;;;;;;;5.00;1.55;;;20.80;84.20;;;;;;4789989;29;20631;-84
2022/05/15 10:16:17;;;;;;;5.35;1.60;;;20.70;88.30;;;;;;4791995;29;20199;-85
2022/05/15 10:18:58;;;;;;;6.38;1.63;;;20.80;86.50;;;;;;4791463;29;20670;-84
2022/05/15 10:21:32;;;;;;;3.90;1.40;;;20.60;83.90;;;;;;4791281;29;20600;-86
2022/05/15 10:24:04;;;;;;;5.72;1.60;;;20.60;87.10;;;;;;4795118;29;20623;-86
2022/05/15 10:27:10;;;;;;;4.50;1.52;;;20.50;89.50;;;;;;4816725;29;20527;-86
2022/05/15 10:29:47;;;;;;;9.38;1.80;;;20.60;84.10;;;;;;4824907;29;20186;-86
2022/05/15 10:32:29;;;;;;;5.45;1.48;;;20.70;83.80;;;;;;4808812;29;20202;-85
2022/05/15 10:34:55;;;;;;;6.40;2.13;;;20.80;85.30;;;;;;4808199;29;20193;-86
2022/05/15 10:37:51;;;;;;;5.55;1.40;;;21.00;84.40;;;;;;4809130;29;20170;-85
2022/05/15 10:40:33;;;;;;;4.15;1.60;;;21.10;80.50;;;;;;4807120;29;20313;-83
2022/05/15 10:43:17;;;;;;;3.28;1.30;;;20.90;80.60;;;;;;4807817;29;20182;-84
2022/05/15 10:46:25;;;;;;;7.22;1.50;;;20.90;81.60;;;;;;4809129;29;20179;-87
2022/05/15 10:49:16;;;;;;;4.55;1.40;;;20.80;83.40;;;;;;4803918;29;20202;-86
2022/05/15 10:52:02;;;;;;;4.03;1.40;;;21.10;81.90;;;;;;4808610;29;20255;-84
2022/05/15 10:57:29;;;;;;;5.78;1.67;;;21.20;81.80;;;;;;4823831;29;20238;-85
2022/05/15 11:00:33;;;;;;;7.55;1.60;;;21.30;81.30;;;;;;4826942;29;20297;-85
2022/05/15 11:03:08;;;;;;;5.93;1.48;;;21.30;81.90;;;;;;4807874;29;20171;-85
2022/05/15 11:05:45;;;;;;;4.47;1.60;;;21.20;80.30;;;;;;4808424;29;20755;-86
2022/05/15 11:08:26;;;;;;;3.45;1.40;;;21.30;80.50;;;;;;4808715;29;20202;-86
2022/05/15 11:11:02;;;;;;;3.50;1.38;;;21.40;81.40;;;;;;4807481;29;20243;-85
2022/05/15 11:13:51;;;;;;;5.93;1.65;;;21.30;81.00;;;;;;4806920;29;20175;-84
2022/05/15 11:16:19;;;;;;;5.55;1.35;;;21.40;82.60;;;;;;4806744;29;20458;-84
2022/05/15 11:18:50;;;;;;;4.00;1.40;;;21.30;80.40;;;;;;4808397;29;20260;-86
2022/05/15 11:21:34;;;;;;;2.83;1.33;;;21.40;82.90;;;;;;4808634;29;20266;-86
2022/05/15 11:24:07;;;;;;;4.82;1.23;;;21.40;81.10;;;;;;4806446;29;20175;-84
2022/05/15 11:26:41;;;;;;;4.18;1.17;;;21.50;81.10;;;;;;4816290;29;20186;-87
2022/05/15 11:29:12;;;;;;;2.45;1.30;;;21.60;82.30;;;;;;4794372;29;20529;-86
2022/05/15 11:31:59;;;;;;;3.50;1.40;;;21.70;81.30;;;;;;4790490;29;20176;-84
2022/05/15 11:35:00;;;;;;;3.00;1.00;;;21.70;78.60;;;;;;4799338;29;20198;-84
2022/05/15 11:37:38;;;;;;;4.72;1.60;;;21.70;79.30;;;;;;4807831;29;20555;-84
2022/05/15 11:40:25;;;;;;;6.60;1.63;;;21.80;80.90;;;;;;4806620;29;20669;-85
2022/05/15 11:42:51;;;;;;;3.70;1.17;;;22.00;79.90;;;;;;4806796;29;20218;-83
2022/05/15 11:45:32;;;;;;;3.30;1.15;;;22.20;79.10;;;;;;4806695;29;20236;-83
2022/05/15 11:48:19;;;;;;;4.32;1.08;;;22.30;81.80;;;;;;4807929;29;20320;-83
2022/05/15 11:50:58;;;;;;;4.03;1.33;;;22.50;81.00;;;;;;4806087;29;20202;-85
2022/05/15 11:53:29;;;;;;;3.42;1.23;;;22.60;80.90;;;;;;4807823;29;20273;-83
2022/05/15 11:55:56;;;;;;;3.08;1.08;;;22.70;76.60;;;;;;4810855;29;20581;-85
2022/05/15 11:58:41;;;;;;;5.63;1.40;;;22.70;79.20;;;;;;4825623;29;20618;-85
2022/05/15 12:01:35;;;;;;;4.65;1.40;;;22.70;78.80;;;;;;4826109;29;20189;-83
2022/05/15 12:04:19;;;;;;;5.72;1.30;;;22.70;76.80;;;;;;4825739;29;20190;-83
2022/05/15 12:06:47;;;;;;;3.50;1.15;;;22.60;76.40;;;;;;4795418;29;20631;-85
2022/05/15 12:09:16;;;;;;;3.38;1.23;;;22.60;77.10;;;;;;4789564;29;20247;-83
2022/05/15 12:11:45;;;;;;;2.80;1.10;;;22.70;77.80;;;;;;4802084;29;20187;-85
2022/05/15 12:14:33;;;;;;;5.22;1.50;;;22.70;77.10;;;;;;4807217;29;20187;-86
2022/05/15 12:17:03;;;;;;;5.32;1.20;;;22.70;75.40;;;;;;4807684;29;20548;-83
2022/05/15 12:19:35;;;;;;;2.22;1.10;;;22.80;76.30;;;;;;4807341;29;20206;-83
2022/05/15 12:22:13;;;;;;;3.72;1.20;;;23.00;75.50;;;;;;4805383;29;20309;-83
2022/05/15 12:24:44;;;;;;;2.90;0.93;;;23.00;74.90;;;;;;4806309;29;20162;-84
2022/05/15 12:27:20;;;;;;;3.55;1.10;;;23.10;75.70;;;;;;4820865;29;20182;-83
2022/05/15 12:30:14;;;;;;;3.92;1.40;;;23.10;74.40;;;;;;4824050;29;20262;-84
2022/05/15 12:32:51;;;;;;;2.83;1.10;;;23.00;77.60;;;;;;4825409;29;20185;-83
2022/05/15 12:35:24;;;;;;;2.42;1.13;;;23.00;74.70;;;;;;4824685;29;20547;-84
2022/05/15 12:38:11;;;;;;;3.15;1.30;;;23.10;75.70;;;;;;4798334;29;20186;-82
2022/05/15 12:40:52;;;;;;;5.03;1.20;;;23.30;75.20;;;;;;4799544;29;20217;-82
2022/05/15 12:43:44;;;;;;;2.88;1.30;;;23.40;74.80;;;;;;4806622;29;20202;-83
2022/05/15 12:46:23;;;;;;;3.65;1.30;;;23.40;71.70;;;;;;4806563;29;20201;-83
2022/05/15 12:48:49;;;;;;;4.28;1.30;;;23.50;74.30;;;;;;4806327;29;20270;-85
2022/05/15 12:51:16;;;;;;;4.22;1.20;;;23.60;73.80;;;;;;4805681;29;20317;-81
2022/05/15 12:53:47;;;;;;;2.72;1.10;;;23.70;74.10;;;;;;4805657;29;20218;-85
2022/05/15 12:56:17;;;;;;;2.38;0.90;;;24.00;73.90;;;;;;4813761;29;20178;-84
2022/05/15 12:58:48;;;;;;;4.30;1.30;;;24.00;72.30;;;;;;4823479;29;20209;-83
2022/05/15 13:01:15;;;;;;;3.92;1.10;;;23.70;74.30;;;;;;4815809;29;20190;-83
2022/05/15 13:03:49;;;;;;;5.40;1.15;;;23.80;72.30;;;;;;4788655;29;20187;-82
2022/05/15 13:06:19;;;;;;;2.55;0.95;;;23.80;73.00;;;;;;4787604;29;20688;-84
2022/05/15 13:08:54;;;;;;;4.20;1.58;;;23.70;73.00;;;;;;4788866;29;20183;-86
2022/05/15 13:11:27;;;;;;;5.47;1.65;;;23.70;71.60;;;;;;4796180;29;20179;-85
2022/05/15 13:13:58;;;;;;;3.63;1.23;;;23.70;74.00;;;;;;4800954;29;20244;-82
2022/05/15 13:16:28;;;;;;;4.65;1.23;;;23.70;73.50;;;;;;4806800;29;20171;-84
2022/05/15 13:18:56;;;;;;;2.85;1.08;;;23.30;72.40;;;;;;4806613;29;20213;-85
2022/05/15 13:21:34;;;;;;;3.03;1.23;;;23.40;72.50;;;;;;4806792;29;20698;-83
2022/05/15 13:24:01;;;;;;;3.50;0.90;;;23.50;72.30;;;;;;4806639;29;20644;-85